Aviation Digital Data Service (ADDS)

Output produced by METARs form (0505 UTC 21 September 2017)
found at http://www.aviationweather.gov/adds/metars/
 
GQPP 210500Z 01017KT 7000 NSC 22/17 Q1013 NOSIG
TAF GQPP 202300Z 2100/2124 36015KT 7000 NSC 
     PROB40 
     TEMPO 2114/2120 3000 DRSA